createdAt,value
2018-12-12T00:01:20.891Z,1.20
2018-12-12T00:03:48.949Z,1.10
2018-12-12T00:06:17.059Z,1.20
2018-12-12T00:08:45.149Z,1.20
2018-12-12T00:11:13.220Z,1.10
2018-12-12T00:13:41.296Z,1.07
2018-12-12T00:16:09.363Z,1.20
2018-12-12T00:18:37.425Z,1.27
2018-12-12T00:21:05.540Z,1.43
2018-12-12T00:23:33.617Z,1.23
2018-12-12T00:26:01.888Z,1.20
2018-12-12T00:28:29.960Z,1.20
2018-12-12T00:30:58.035Z,1.30
2018-12-12T00:33:27.004Z,1.20
2018-12-12T00:35:55.082Z,1.50
2018-12-12T00:38:23.136Z,1.13
2018-12-12T00:40:51.956Z,1.00
2018-12-12T00:43:20.272Z,1.70
2018-12-12T00:45:48.393Z,1.50
2018-12-12T00:48:16.454Z,1.40
2018-12-12T00:50:44.535Z,1.60
2018-12-12T00:53:12.597Z,1.53
2018-12-12T00:55:40.657Z,1.80
2018-12-12T00:58:08.730Z,1.50
2018-12-12T01:00:36.799Z,1.93
2018-12-12T01:03:04.864Z,1.53
2018-12-12T01:05:33.437Z,1.40
2018-12-12T01:08:01.505Z,1.50
2018-12-12T01:10:29.576Z,1.73
2018-12-12T01:12:57.651Z,1.27
2018-12-12T01:15:25.718Z,1.50
2018-12-12T01:17:53.771Z,1.47
2018-12-12T01:20:21.845Z,1.30
2018-12-12T01:22:49.895Z,1.40
2018-12-12T01:25:17.965Z,1.30
2018-12-12T01:27:46.789Z,1.00
2018-12-12T01:30:14.855Z,1.30
2018-12-12T01:32:42.904Z,1.00
2018-12-12T01:35:11.023Z,1.37
2018-12-12T01:37:39.085Z,1.30
2018-12-12T01:40:07.587Z,1.22
2018-12-12T01:42:35.648Z,1.70
2018-12-12T01:45:04.021Z,1.20
2018-12-12T01:47:32.092Z,1.60
2018-12-12T01:50:00.668Z,1.43
2018-12-12T01:52:28.736Z,1.20
2018-12-12T01:54:56.799Z,1.33
2018-12-12T01:57:24.885Z,1.23
2018-12-12T01:59:52.976Z,1.30
2018-12-12T02:02:21.039Z,1.33
2018-12-12T02:04:49.107Z,1.10
2018-12-12T02:07:17.285Z,1.60
2018-12-12T02:09:45.352Z,1.33
2018-12-12T02:12:14.033Z,1.00
2018-12-12T02:14:42.101Z,1.20
2018-12-12T02:17:10.185Z,1.50
2018-12-12T02:19:38.264Z,1.37
2018-12-12T02:22:06.332Z,1.35
2018-12-12T02:24:34.413Z,1.40
2018-12-12T02:27:02.529Z,1.43
2018-12-12T02:29:30.678Z,1.30
2018-12-12T02:31:58.750Z,1.43
2018-12-12T02:34:27.421Z,1.50
2018-12-12T02:36:55.477Z,1.70
2018-12-12T02:39:23.540Z,1.30
2018-12-12T02:41:51.641Z,1.33
2018-12-12T02:44:19.708Z,1.33
2018-12-12T02:46:47.784Z,1.20
2018-12-12T02:49:15.855Z,1.50
2018-12-12T02:51:43.962Z,1.30
2018-12-12T02:54:12.027Z,1.67
2018-12-12T02:56:40.289Z,1.70
2018-12-12T02:59:08.344Z,1.33
2018-12-12T03:01:36.425Z,1.60
2018-12-12T03:04:04.655Z,1.57
2018-12-12T03:06:32.742Z,1.30
2018-12-12T03:09:00.852Z,1.70
2018-12-12T03:11:28.936Z,1.73
2018-12-12T03:13:57.000Z,1.40
2018-12-12T03:16:25.076Z,1.60
2018-12-12T03:18:53.617Z,1.27
2018-12-12T03:21:21.687Z,1.70
2018-12-12T03:23:49.843Z,1.70
2018-12-12T03:26:17.976Z,1.57
2018-12-12T03:28:46.022Z,1.43
2018-12-12T03:31:14.298Z,2.00
2018-12-12T03:33:42.371Z,2.00
2018-12-12T03:36:10.450Z,1.70
2018-12-12T03:38:38.512Z,1.73
2018-12-12T03:41:06.713Z,1.90
2018-12-12T03:43:34.771Z,1.93
2018-12-12T03:46:02.835Z,2.00
2018-12-12T03:48:30.922Z,1.93
2018-12-12T03:50:59.020Z,1.70
2018-12-12T03:53:27.080Z,1.90
2018-12-12T03:55:56.040Z,1.90
2018-12-12T03:58:24.109Z,2.23
2018-12-12T04:00:52.180Z,2.37
2018-12-12T04:03:20.536Z,2.73
2018-12-12T04:05:48.700Z,1.90
2018-12-12T04:08:16.772Z,2.23
2018-12-12T04:10:44.853Z,2.13
2018-12-12T04:13:12.916Z,2.60
2018-12-12T04:15:40.980Z,2.23
2018-12-12T04:18:09.069Z,2.63
2018-12-12T04:20:38.048Z,2.60
2018-12-12T04:23:06.210Z,2.40
2018-12-12T04:25:34.633Z,2.50
2018-12-12T04:28:02.803Z,2.40
2018-12-12T04:30:30.878Z,3.00
2018-12-12T04:32:59.098Z,3.37
2018-12-12T04:35:27.202Z,3.40
2018-12-12T04:37:55.269Z,3.57
2018-12-12T04:40:23.339Z,3.37
2018-12-12T04:42:51.473Z,3.10
2018-12-12T04:45:19.701Z,3.73
2018-12-12T04:47:47.833Z,4.40
2018-12-12T04:50:15.887Z,4.87
2018-12-12T04:55:26.200Z,5.70
2018-12-12T04:57:54.265Z,5.27
2018-12-12T05:00:22.337Z,6.03
2018-12-12T05:02:50.960Z,6.97
2018-12-12T05:05:19.032Z,5.90
2018-12-12T05:07:47.104Z,6.20
2018-12-12T05:10:15.182Z,6.03
2018-12-12T05:12:43.268Z,6.30
2018-12-12T05:15:11.424Z,7.20
2018-12-12T05:17:39.504Z,7.30
2018-12-12T05:20:08.096Z,6.50
2018-12-12T05:22:36.172Z,8.00
2018-12-12T05:25:05.458Z,7.40
2018-12-12T05:27:33.569Z,7.77
2018-12-12T05:30:01.631Z,6.80
2018-12-12T05:32:29.713Z,7.87
2018-12-12T05:34:57.812Z,7.80
2018-12-12T05:37:25.889Z,8.37
2018-12-12T05:39:53.954Z,8.63
2018-12-12T05:42:22.026Z,9.53
2018-12-12T05:44:50.080Z,8.50
2018-12-12T05:47:18.604Z,8.80
2018-12-12T05:49:46.804Z,8.17
2018-12-12T05:52:14.865Z,8.70
2018-12-12T05:54:42.935Z,8.13
2018-12-12T05:57:10.995Z,9.13
2018-12-12T05:59:39.065Z,9.20
2018-12-12T06:02:07.135Z,8.60
2018-12-12T06:04:35.196Z,8.97
2018-12-12T06:07:03.278Z,8.93
2018-12-12T06:09:31.760Z,7.97
2018-12-12T06:11:59.826Z,8.17
2018-12-12T06:14:27.892Z,7.73
2018-12-12T06:16:55.968Z,8.07
2018-12-12T06:19:24.049Z,7.77
2018-12-12T06:21:52.109Z,6.97
2018-12-12T06:24:20.206Z,7.67
2018-12-12T06:26:48.267Z,7.83
2018-12-12T06:29:16.333Z,7.47
2018-12-12T06:31:44.473Z,7.43
2018-12-12T06:34:12.540Z,8.10
2018-12-12T06:36:40.621Z,8.17
2018-12-12T06:39:08.696Z,8.27
2018-12-12T06:41:36.768Z,8.60
2018-12-12T06:44:04.836Z,7.90
2018-12-12T06:46:32.909Z,7.70
2018-12-12T06:49:00.975Z,8.03
2018-12-12T06:51:29.052Z,7.70
2018-12-12T06:53:57.452Z,7.57
2018-12-12T06:56:25.618Z,8.93
2018-12-12T06:58:53.712Z,7.83
2018-12-12T07:01:21.776Z,7.27
2018-12-12T07:03:49.838Z,6.43
2018-12-12T07:06:17.908Z,6.93
2018-12-12T07:08:46.004Z,6.20
2018-12-12T07:11:14.065Z,5.70
2018-12-12T07:13:42.129Z,5.47
2018-12-12T07:16:11.340Z,5.60
2018-12-12T07:18:39.393Z,6.10
2018-12-12T07:21:07.477Z,5.10
2018-12-12T07:23:35.547Z,5.00
2018-12-12T07:26:03.806Z,4.90
2018-12-12T07:28:31.891Z,5.03
2018-12-12T07:30:59.970Z,4.97
2018-12-12T07:33:28.029Z,4.47
2018-12-12T07:35:59.435Z,5.45
2018-12-12T07:38:26.251Z,4.60
2018-12-12T07:40:54.309Z,5.37
2018-12-12T07:43:22.387Z,4.90
2018-12-12T07:45:50.449Z,4.87
2018-12-12T07:48:18.528Z,4.43
2018-12-12T07:50:46.590Z,5.50
2018-12-12T07:53:14.671Z,4.80
2018-12-12T07:55:42.724Z,5.03
2018-12-12T07:58:10.788Z,4.77
2018-12-12T08:00:39.288Z,5.47
2018-12-12T08:03:07.350Z,4.73
2018-12-12T08:05:35.416Z,5.90
2018-12-12T08:08:03.488Z,4.27
2018-12-12T08:10:31.556Z,4.50
2018-12-12T08:12:59.628Z,4.50
2018-12-12T08:15:27.744Z,4.27
2018-12-12T08:17:55.792Z,4.63
2018-12-12T08:20:23.877Z,4.13
2018-12-12T08:22:52.656Z,4.47
2018-12-12T08:25:21.017Z,5.60
2018-12-12T08:27:49.081Z,4.53
2018-12-12T08:30:17.183Z,3.85
2018-12-12T08:32:45.228Z,4.40
2018-12-12T08:35:13.301Z,4.73
2018-12-12T08:37:41.384Z,4.67
2018-12-12T08:40:09.479Z,4.23
2018-12-12T08:42:37.554Z,5.10
2018-12-12T08:45:07.558Z,5.13
2018-12-12T08:47:35.608Z,4.77
2018-12-12T08:50:04.870Z,5.20
2018-12-12T08:52:32.928Z,5.40
2018-12-12T08:55:00.989Z,5.27
2018-12-12T08:57:29.244Z,5.53
2018-12-12T08:59:57.318Z,5.50
2018-12-12T09:02:25.372Z,4.90
2018-12-12T09:04:53.434Z,6.17
2018-12-12T09:07:21.987Z,4.80
2018-12-12T09:09:50.050Z,4.93
2018-12-12T09:12:18.114Z,4.97
2018-12-12T09:14:46.172Z,5.23
2018-12-12T09:17:14.253Z,4.87
2018-12-12T09:19:42.321Z,5.53
2018-12-12T09:22:10.395Z,5.10
2018-12-12T09:24:38.460Z,5.40
2018-12-12T09:27:06.579Z,4.97
2018-12-12T09:29:35.208Z,5.00
2018-12-12T09:32:03.272Z,4.77
2018-12-12T09:34:31.355Z,4.40
2018-12-12T09:36:59.436Z,4.37
2018-12-12T09:39:27.501Z,4.60
2018-12-12T09:41:56.012Z,4.57
2018-12-12T09:44:24.121Z,4.77
2018-12-12T09:46:52.212Z,4.60
2018-12-12T09:49:20.292Z,4.30
2018-12-12T09:51:48.684Z,3.97
2018-12-12T09:54:16.797Z,3.97
2018-12-12T09:56:44.876Z,4.10
2018-12-12T09:59:13.000Z,4.97
2018-12-12T10:01:41.073Z,4.50
2018-12-12T10:04:09.167Z,3.70
2018-12-12T10:06:37.237Z,3.40
2018-12-12T10:09:07.196Z,3.93
2018-12-12T10:11:35.286Z,4.03
2018-12-12T10:14:03.771Z,4.17
2018-12-12T10:16:31.849Z,4.20
2018-12-12T10:18:59.925Z,3.53
2018-12-12T10:21:27.996Z,4.07
2018-12-12T10:23:56.068Z,3.03
2018-12-12T10:26:24.145Z,3.23
2018-12-12T10:28:52.344Z,3.37
2018-12-12T10:31:20.428Z,2.72
2018-12-12T10:33:48.488Z,3.47
2018-12-12T10:36:16.646Z,3.07
2018-12-12T10:38:44.706Z,3.43
2018-12-12T10:41:12.773Z,2.87
2018-12-12T10:43:41.127Z,2.70
2018-12-12T10:46:09.199Z,3.33
2018-12-12T10:48:37.305Z,2.90
2018-12-12T10:51:05.400Z,2.70
2018-12-12T10:53:33.472Z,3.13
2018-12-12T10:56:01.545Z,3.03
2018-12-12T10:58:29.942Z,2.60
2018-12-12T11:01:03.492Z,3.10
2018-12-12T11:03:35.373Z,3.30
2018-12-12T11:06:03.640Z,2.80
2018-12-12T11:08:31.742Z,3.13
2018-12-12T11:10:59.814Z,3.40
2018-12-12T11:13:27.892Z,4.00
2018-12-12T11:15:55.961Z,4.80
2018-12-12T11:18:24.484Z,6.57
2018-12-12T11:20:52.552Z,5.40
2018-12-12T11:23:20.612Z,4.50
2018-12-12T11:25:48.711Z,5.23
2018-12-12T11:28:16.778Z,5.60
2018-12-12T11:30:44.841Z,5.73
2018-12-12T11:33:12.917Z,5.57
2018-12-12T11:35:41.010Z,5.70
2018-12-12T11:38:09.077Z,5.57
2018-12-12T11:40:37.188Z,5.70
2018-12-12T11:43:05.249Z,5.97
2018-12-12T11:45:33.511Z,5.93
2018-12-12T11:48:01.592Z,6.50
2018-12-12T11:50:29.675Z,6.23
2018-12-12T11:52:57.729Z,5.43
2018-12-12T11:55:25.801Z,6.00
2018-12-12T11:57:53.879Z,5.77
2018-12-12T12:00:21.951Z,6.20
2018-12-12T12:02:50.227Z,6.93
2018-12-12T12:05:18.289Z,5.47
2018-12-12T12:07:46.372Z,6.17
2018-12-12T12:10:14.464Z,6.90
2018-12-12T12:12:42.520Z,6.83
2018-12-12T12:15:10.592Z,6.63
2018-12-12T12:17:38.664Z,7.60
2018-12-12T12:20:07.876Z,7.10
2018-12-12T12:22:35.936Z,6.50
2018-12-12T12:25:04.492Z,6.50
2018-12-12T12:27:32.568Z,6.83
2018-12-12T12:30:00.642Z,6.23
2018-12-12T12:32:28.738Z,6.60
2018-12-12T12:34:56.816Z,6.93
2018-12-12T12:37:24.902Z,6.43
2018-12-12T12:39:53.193Z,5.93
2018-12-12T12:42:21.268Z,6.97
2018-12-12T12:44:49.452Z,6.47
2018-12-12T12:47:18.772Z,5.97
2018-12-12T12:49:46.844Z,5.87
2018-12-12T12:52:14.925Z,5.97
2018-12-12T12:54:43.005Z,5.30
2018-12-12T12:57:11.070Z,5.80
2018-12-12T12:59:39.242Z,6.00
2018-12-12T13:02:07.323Z,5.80
2018-12-12T13:04:35.388Z,6.50
2018-12-12T13:07:03.456Z,6.00
2018-12-12T13:09:31.811Z,6.83
2018-12-12T13:12:00.078Z,5.90
2018-12-12T13:14:28.347Z,6.13
2018-12-12T13:16:56.493Z,6.97
2018-12-12T13:19:24.573Z,6.17
2018-12-12T13:21:52.653Z,6.93
2018-12-12T13:24:20.736Z,5.50
2018-12-12T13:26:53.475Z,5.67
2018-12-12T13:29:18.879Z,6.63
2018-12-12T13:31:47.395Z,5.70
2018-12-12T13:34:16.425Z,6.43
2018-12-12T13:36:44.636Z,8.27
2018-12-12T13:39:12.694Z,7.90
2018-12-12T13:41:40.756Z,9.23
2018-12-12T13:44:08.851Z,8.67
2018-12-12T13:46:36.934Z,8.63
2018-12-12T13:49:05.592Z,8.07
2018-12-12T13:51:33.661Z,8.10
2018-12-12T13:54:02.085Z,8.20
2018-12-12T13:56:30.155Z,7.77
2018-12-12T13:58:58.245Z,7.77
2018-12-12T14:01:26.325Z,8.60
2018-12-12T14:03:54.476Z,6.80
2018-12-12T14:06:22.568Z,7.20
2018-12-12T14:08:50.657Z,8.13
2018-12-12T14:11:18.762Z,6.67
2018-12-12T14:13:46.827Z,6.70
2018-12-12T14:16:15.592Z,6.53
2018-12-12T14:18:43.658Z,6.43
2018-12-12T14:21:11.728Z,6.33
2018-12-12T14:23:39.806Z,6.93
2018-12-12T14:26:07.879Z,6.80
2018-12-12T14:28:35.953Z,7.20
2018-12-12T14:31:04.039Z,6.97
2018-12-12T14:33:32.099Z,6.97
2018-12-12T14:36:01.157Z,7.07
2018-12-12T14:38:29.778Z,6.90
2018-12-12T14:40:57.867Z,6.03
2018-12-12T14:43:25.929Z,6.90
2018-12-12T14:45:54.003Z,6.90
2018-12-12T14:48:22.069Z,7.17
2018-12-12T14:50:50.563Z,7.47
2018-12-12T14:53:18.631Z,6.93
2018-12-12T14:55:46.699Z,6.43
2018-12-12T14:58:14.764Z,6.93
2018-12-12T15:00:43.139Z,7.17
2018-12-12T15:03:11.207Z,8.37
2018-12-12T15:05:39.283Z,7.22
2018-12-12T15:08:07.370Z,7.70
2018-12-12T15:10:35.437Z,7.30
2018-12-12T15:13:03.527Z,7.73
2018-12-12T15:15:31.598Z,7.33
2018-12-12T15:17:59.660Z,7.97
2018-12-12T15:20:27.735Z,7.57
2018-12-12T15:22:56.235Z,6.37
2018-12-12T15:25:24.294Z,6.90
2018-12-12T15:27:52.366Z,7.40
2018-12-12T15:30:20.445Z,7.10
2018-12-12T15:32:48.507Z,7.43
2018-12-12T15:35:16.675Z,9.40
2018-12-12T15:37:44.754Z,7.27
2018-12-12T15:40:12.811Z,6.92
2018-12-12T15:42:40.885Z,7.20
2018-12-12T15:45:09.221Z,7.50
2018-12-12T15:47:37.281Z,8.13
2018-12-12T15:50:07.406Z,7.60
2018-12-12T15:52:35.694Z,8.23
2018-12-12T15:55:04.451Z,6.90
2018-12-12T15:57:32.527Z,7.27
2018-12-12T16:00:00.622Z,7.00
2018-12-12T16:02:28.691Z,8.33
2018-12-12T16:04:56.774Z,7.40
2018-12-12T16:07:25.167Z,8.20
2018-12-12T16:09:53.238Z,7.00
2018-12-12T16:12:21.415Z,6.73
2018-12-12T16:14:49.517Z,8.10
2018-12-12T16:17:17.581Z,7.13
2018-12-12T16:19:45.645Z,8.50
2018-12-12T16:22:13.724Z,7.60
2018-12-12T16:24:41.792Z,8.37
2018-12-12T16:27:09.892Z,8.47
2018-12-12T16:29:38.427Z,8.23
2018-12-12T16:32:06.501Z,8.77
2018-12-12T16:34:34.624Z,8.80
2018-12-12T16:37:02.712Z,8.10
2018-12-12T16:39:30.801Z,9.70
2018-12-12T16:41:58.872Z,7.90
2018-12-12T16:44:26.989Z,8.60
2018-12-12T16:46:55.067Z,8.83
2018-12-12T16:49:23.131Z,8.47
2018-12-12T16:51:51.825Z,7.80
2018-12-12T16:54:20.257Z,8.30
2018-12-12T16:56:48.319Z,7.23
2018-12-12T16:59:16.446Z,8.27
2018-12-12T17:01:44.489Z,8.47
2018-12-12T17:04:12.562Z,7.93
2018-12-12T17:06:40.628Z,8.60
2018-12-12T17:09:08.905Z,7.30
2018-12-12T17:11:36.957Z,7.23
2018-12-12T17:14:05.504Z,7.57
2018-12-12T17:16:33.575Z,7.87
2018-12-12T17:19:01.633Z,7.33
2018-12-12T17:21:30.404Z,8.40
2018-12-12T17:23:58.510Z,7.87
2018-12-12T17:26:26.592Z,8.57
2018-12-12T17:28:54.664Z,8.33
2018-12-12T17:31:22.733Z,7.87
2018-12-12T17:33:50.796Z,7.60
2018-12-12T17:36:19.301Z,7.27
2018-12-12T17:38:47.377Z,7.60
2018-12-12T17:41:15.450Z,7.13
2018-12-12T17:43:43.516Z,8.03
2018-12-12T17:46:11.612Z,7.00
2018-12-12T17:48:40.263Z,7.37
2018-12-12T17:51:08.342Z,7.00
2018-12-12T17:53:36.409Z,7.03
2018-12-12T17:56:04.744Z,6.93
2018-12-12T17:58:33.218Z,6.80
2018-12-12T18:01:01.276Z,6.33
2018-12-12T18:03:29.342Z,6.53
2018-12-12T18:05:57.439Z,5.90
2018-12-12T18:08:25.500Z,6.50
2018-12-12T18:10:53.548Z,6.80
2018-12-12T18:13:21.624Z,7.27
2018-12-12T18:15:49.796Z,6.00
2018-12-12T18:18:17.868Z,7.20
2018-12-12T18:20:46.645Z,6.50
2018-12-12T18:23:14.703Z,7.13
2018-12-12T18:25:43.413Z,6.73
2018-12-12T18:28:11.485Z,6.90
2018-12-12T18:30:39.656Z,7.70
2018-12-12T18:33:07.717Z,7.13
2018-12-12T18:35:35.800Z,7.80
2018-12-12T18:38:03.870Z,7.43
2018-12-12T18:40:31.931Z,7.43
2018-12-12T18:43:00.313Z,8.13
2018-12-12T18:45:28.380Z,8.40
2018-12-12T18:47:56.454Z,7.43
2018-12-12T18:50:24.620Z,8.07
2018-12-12T18:52:52.767Z,7.27
2018-12-12T18:55:21.787Z,7.30
2018-12-12T18:57:50.567Z,7.73
2018-12-12T19:00:18.644Z,6.73
2018-12-12T19:02:46.720Z,7.10
2018-12-12T19:05:15.132Z,7.70
2018-12-12T19:07:43.191Z,7.33
2018-12-12T19:10:12.899Z,7.97
2018-12-12T19:12:40.981Z,7.43
2018-12-12T19:15:09.247Z,7.17
2018-12-12T19:17:37.332Z,6.77
2018-12-12T19:20:07.537Z,7.83
2018-12-12T19:22:35.601Z,7.60
2018-12-12T19:25:04.262Z,7.07
2018-12-12T19:27:32.634Z,8.83
2018-12-12T19:30:00.690Z,7.47
2018-12-12T19:32:28.757Z,6.73
2018-12-12T19:34:56.888Z,7.13
2018-12-12T19:37:25.100Z,6.87
2018-12-12T19:39:53.165Z,7.20
2018-12-12T19:42:21.247Z,7.70
2018-12-12T19:44:49.300Z,6.27
2018-12-12T19:47:17.370Z,7.07
2018-12-12T19:49:46.021Z,8.23
2018-12-12T19:52:14.104Z,7.13
2018-12-12T19:54:42.160Z,7.83
2018-12-12T19:57:10.240Z,8.63
2018-12-12T19:59:39.227Z,8.47
2018-12-12T20:02:07.468Z,8.07
2018-12-12T20:04:35.546Z,7.83
2018-12-12T20:07:03.613Z,8.37
2018-12-12T20:09:31.689Z,8.03
2018-12-12T20:12:00.148Z,8.20
2018-12-12T20:14:28.240Z,8.77
2018-12-12T20:16:56.439Z,7.53
2018-12-12T20:19:24.507Z,6.77
2018-12-12T20:21:52.580Z,8.23
2018-12-12T20:24:20.647Z,8.47
2018-12-12T20:26:48.731Z,9.70
2018-12-12T20:29:16.796Z,7.00
2018-12-12T20:31:44.921Z,8.53
2018-12-12T20:34:13.716Z,9.13
2018-12-12T20:36:41.834Z,9.17
2018-12-12T20:39:09.896Z,8.70
2018-12-12T20:41:37.966Z,7.53
2018-12-12T20:44:06.041Z,7.97
2018-12-12T20:46:34.165Z,8.60
2018-12-12T20:49:02.291Z,7.97
2018-12-12T20:51:30.385Z,8.85
2018-12-12T20:53:58.452Z,8.47
2018-12-12T20:56:26.955Z,8.20
2018-12-12T20:58:55.020Z,7.93
2018-12-12T21:01:24.315Z,8.37
2018-12-12T21:03:52.397Z,8.23
2018-12-12T21:06:20.476Z,9.20
2018-12-12T21:08:48.539Z,8.60
2018-12-12T21:11:17.432Z,8.80
2018-12-12T21:13:45.509Z,9.63
2018-12-12T21:16:13.575Z,8.83
2018-12-12T21:18:42.217Z,8.77
2018-12-12T21:21:10.284Z,9.60
2018-12-12T21:23:38.344Z,10.00
2018-12-12T21:26:06.825Z,8.63
2018-12-12T21:28:34.876Z,9.87
2018-12-12T21:31:02.963Z,9.97
2018-12-12T21:33:31.041Z,10.53
2018-12-12T21:36:00.919Z,10.77
2018-12-12T21:38:29.165Z,10.77
2018-12-12T21:40:57.633Z,10.07
2018-12-12T21:43:25.699Z,9.73
2018-12-12T21:45:53.754Z,9.67
2018-12-12T21:48:21.929Z,10.30
2018-12-12T21:50:50.010Z,9.73
2018-12-12T21:53:18.075Z,9.00
2018-12-12T21:55:46.160Z,10.00
2018-12-12T21:58:14.233Z,10.07
2018-12-12T22:00:42.291Z,9.50
2018-12-12T22:03:10.981Z,10.47
2018-12-12T22:05:39.063Z,10.60
2018-12-12T22:08:07.109Z,9.67
2018-12-12T22:10:35.196Z,10.87
2018-12-12T22:13:03.335Z,10.07
2018-12-12T22:15:31.429Z,11.00
2018-12-12T22:17:59.528Z,10.03
2018-12-12T22:20:27.588Z,10.47
2018-12-12T22:22:55.685Z,9.63
2018-12-12T22:25:24.022Z,11.30
2018-12-12T22:27:52.072Z,10.20
2018-12-12T22:30:20.165Z,10.13
2018-12-12T22:32:48.254Z,9.83
2018-12-12T22:35:16.319Z,10.27
2018-12-12T22:37:44.383Z,8.80
2018-12-12T22:40:12.461Z,9.38
2018-12-12T22:42:40.516Z,9.57
2018-12-12T22:45:08.588Z,9.13
2018-12-12T22:47:36.951Z,8.97
2018-12-12T22:50:05.344Z,8.23
2018-12-12T22:52:33.410Z,9.23
2018-12-12T22:55:01.486Z,8.90
2018-12-12T22:57:29.565Z,8.67
2018-12-12T22:59:57.633Z,8.97
2018-12-12T23:02:25.754Z,9.53
2018-12-12T23:04:54.045Z,9.17
2018-12-12T23:07:22.104Z,8.73
2018-12-12T23:09:51.135Z,8.77
2018-12-12T23:12:19.195Z,8.23
2018-12-12T23:14:47.264Z,7.87
2018-12-12T23:17:15.335Z,7.53
2018-12-12T23:19:43.401Z,8.03
2018-12-12T23:22:11.464Z,7.83
2018-12-12T23:24:39.540Z,7.57
2018-12-12T23:27:07.616Z,7.73
2018-12-12T23:29:35.676Z,7.43
2018-12-12T23:32:04.112Z,7.90
2018-12-12T23:34:32.172Z,7.53
2018-12-12T23:37:00.241Z,7.20
2018-12-12T23:39:28.319Z,7.43
2018-12-12T23:41:56.386Z,8.43
2018-12-12T23:44:24.545Z,7.87
2018-12-12T23:46:52.609Z,7.40
2018-12-12T23:49:20.699Z,7.90
2018-12-12T23:51:48.827Z,7.90
2018-12-12T23:54:17.351Z,7.57
2018-12-12T23:56:45.420Z,6.97
2018-12-12T23:59:13.479Z,9.03
